sensor_id;sensor_type;location;lat;lon;timestamp;P1;P2;P0
44933;PMS3003;30667;43.614;1.442;2023-10-09T00:01:39;12.00;10.60;6.00
44933;PMS3003;30667;43.614;1.442;2023-10-09T00:04:08;12.20;10.60;6.00
44933;PMS3003;30667;43.614;1.442;2023-10-09T00:06:35;11.00;10.80;6.00
44933;PMS3003;30667;43.614;1.442;2023-10-09T00:09:04;10.00;9.60;6.00
44933;PMS3003;30667;43.614;1.442;2023-10-09T00:11:43;13.20;10.20;6.20
44933;PMS3003;30667;43.614;1.442;2023-10-09T00:14:10;10.00;9.00;5.00
44933;PMS3003;30667;43.614;1.442;2023-10-09T00:16:36;11.20;10.20;6.00
44933;PMS3003;30667;43.614;1.442;2023-10-09T00:19:11;11.60;10.60;6.00
44933;PMS3003;30667;43.614;1.442;2023-10-09T00:21:51;13.20;9.40;6.00
44933;PMS3003;30667;43.614;1.442;2023-10-09T00:24:20;11.40;10.80;6.00
44933;PMS3003;30667;43.614;1.442;2023-10-09T00:26:51;12.40;10.80;6.00
44933;PMS3003;30667;43.614;1.442;2023-10-09T00:29:20;10.80;9.60;5.80
44933;PMS3003;30667;43.614;1.442;2023-10-09T00:31:53;12.40;12.20;6.40
44933;PMS3003;30667;43.614;1.442;2023-10-09T00:34:41;13.80;11.40;6.80
44933;PMS3003;30667;43.614;1.442;2023-10-09T00:37:10;10.00;9.00;5.80
44933;PMS3003;30667;43.614;1.442;2023-10-09T00:39:45;14.80;12.40;6.80
44933;PMS3003;30667;43.614;1.442;2023-10-09T00:42:14;12.00;10.60;6.80
44933;PMS3003;30667;43.614;1.442;2023-10-09T00:44:50;13.60;11.20;6.00
44933;PMS3003;30667;43.614;1.442;2023-10-09T00:47:16;14.80;12.00;7.00
44933;PMS3003;30667;43.614;1.442;2023-10-09T00:49:57;12.00;11.40;5.60
44933;PMS3003;30667;43.614;1.442;2023-10-09T00:52:29;11.40;11.40;6.80
44933;PMS3003;30667;43.614;1.442;2023-10-09T00:55:28;12.80;12.20;7.80
44933;PMS3003;30667;43.614;1.442;2023-10-09T00:58:09;14.80;13.40;7.00
44933;PMS3003;30667;43.614;1.442;2023-10-09T01:00:41;10.80;10.80;6.60
44933;PMS3003;30667;43.614;1.442;2023-10-09T01:03:10;14.00;13.40;7.80
44933;PMS3003;30667;43.614;1.442;2023-10-09T01:05:50;12.20;11.20;6.60
44933;PMS3003;30667;43.614;1.442;2023-10-09T01:08:33;12.00;11.80;7.00
44933;PMS3003;30667;43.614;1.442;2023-10-09T01:11:05;15.00;12.40;6.60
44933;PMS3003;30667;43.614;1.442;2023-10-09T01:13:38;15.00;12.80;7.00
44933;PMS3003;30667;43.614;1.442;2023-10-09T01:16:07;14.80;13.60;7.00
44933;PMS3003;30667;43.614;1.442;2023-10-09T01:18:40;15.00;13.00;7.00
44933;PMS3003;30667;43.614;1.442;2023-10-09T01:21:08;13.00;12.20;7.00
44933;PMS3003;30667;43.614;1.442;2023-10-09T01:23:37;13.20;13.00;7.00
44933;PMS3003;30667;43.614;1.442;2023-10-09T01:26:08;13.20;12.00;6.40
44933;PMS3003;30667;43.614;1.442;2023-10-09T01:28:33;14.00;12.00;6.00
44933;PMS3003;30667;43.614;1.442;2023-10-09T01:30:59;11.25;10.25;6.00
44933;PMS3003;30667;43.614;1.442;2023-10-09T01:33:27;14.60;12.40;8.00
44933;PMS3003;30667;43.614;1.442;2023-10-09T01:35:53;12.20;11.00;7.00
44933;PMS3003;30667;43.614;1.442;2023-10-09T01:38:25;12.80;11.00;6.00
44933;PMS3003;30667;43.614;1.442;2023-10-09T01:41:11;14.20;11.60;7.60
44933;PMS3003;30667;43.614;1.442;2023-10-09T01:43:41;13.60;12.00;7.00
44933;PMS3003;30667;43.614;1.442;2023-10-09T01:46:10;14.80;12.60;8.00
44933;PMS3003;30667;43.614;1.442;2023-10-09T01:48:36;14.00;12.40;6.80
44933;PMS3003;30667;43.614;1.442;2023-10-09T01:51:05;13.80;12.80;7.00
44933;PMS3003;30667;43.614;1.442;2023-10-09T01:53:31;12.60;12.20;7.20
44933;PMS3003;30667;43.614;1.442;2023-10-09T01:56:07;9.60;9.20;6.60
44933;PMS3003;30667;43.614;1.442;2023-10-09T01:58:34;12.80;12.40;7.00
44933;PMS3003;30667;43.614;1.442;2023-10-09T02:01:00;12.00;12.00;6.00
44933;PMS3003;30667;43.614;1.442;2023-10-09T02:03:27;12.80;10.80;6.40
44933;PMS3003;30667;43.614;1.442;2023-10-09T02:05:54;14.60;13.60;7.00
44933;PMS3003;30667;43.614;1.442;2023-10-09T02:08:28;12.00;11.40;7.00
44933;PMS3003;30667;43.614;1.442;2023-10-09T02:11:01;12.40;10.80;6.00
44933;PMS3003;30667;43.614;1.442;2023-10-09T02:13:27;13.00;12.60;7.00
44933;PMS3003;30667;43.614;1.442;2023-10-09T02:15:56;10.60;10.00;6.20
44933;PMS3003;30667;43.614;1.442;2023-10-09T02:18:37;10.60;10.00;6.40
44933;PMS3003;30667;43.614;1.442;2023-10-09T02:21:20;11.40;11.20;6.20
44933;PMS3003;30667;43.614;1.442;2023-10-09T02:24:05;13.20;13.00;7.00
44933;PMS3003;30667;43.614;1.442;2023-10-09T02:26:33;12.80;12.20;6.40
44933;PMS3003;30667;43.614;1.442;2023-10-09T02:29:04;13.40;10.60;7.20
44933;PMS3003;30667;43.614;1.442;2023-10-09T02:31:40;12.20;12.00;7.20
44933;PMS3003;30667;43.614;1.442;2023-10-09T02:34:08;13.60;12.60;7.00
44933;PMS3003;30667;43.614;1.442;2023-10-09T02:36:35;12.20;12.00;5.60
44933;PMS3003;30667;43.614;1.442;2023-10-09T02:39:11;12.20;11.60;6.00
44933;PMS3003;30667;43.614;1.442;2023-10-09T02:41:52;14.40;13.60;8.00
44933;PMS3003;30667;43.614;1.442;2023-10-09T02:44:25;13.80;13.40;7.60
44933;PMS3003;30667;43.614;1.442;2023-10-09T02:46:51;10.20;10.20;6.00
44933;PMS3003;30667;43.614;1.442;2023-10-09T02:49:16;14.00;12.75;6.00
44933;PMS3003;30667;43.614;1.442;2023-10-09T02:51:42;13.00;12.00;7.00
44933;PMS3003;30667;43.614;1.442;2023-10-09T02:54:08;14.50;13.00;6.75
44933;PMS3003;30667;43.614;1.442;2023-10-09T02:56:51;14.00;14.00;7.80
44933;PMS3003;30667;43.614;1.442;2023-10-09T02:59:19;14.00;13.40;8.00
44933;PMS3003;30667;43.614;1.442;2023-10-09T03:01:47;14.60;13.60;7.20
44933;PMS3003;30667;43.614;1.442;2023-10-09T03:04:13;14.20;13.00;7.00
44933;PMS3003;30667;43.614;1.442;2023-10-09T03:06:39;14.80;14.00;8.00
44933;PMS3003;30667;43.614;1.442;2023-10-09T03:09:15;13.80;12.60;7.20
44933;PMS3003;30667;43.614;1.442;2023-10-09T03:11:49;16.60;14.80;9.40
44933;PMS3003;30667;43.614;1.442;2023-10-09T03:14:25;17.80;15.00;8.80
44933;PMS3003;30667;43.614;1.442;2023-10-09T03:16:55;17.00;15.80;8.80
44933;PMS3003;30667;43.614;1.442;2023-10-09T03:19:26;15.60;14.80;7.60
44933;PMS3003;30667;43.614;1.442;2023-10-09T03:21:56;11.80;11.00;7.20
44933;PMS3003;30667;43.614;1.442;2023-10-09T03:24:25;17.00;13.80;8.00
44933;PMS3003;30667;43.614;1.442;2023-10-09T03:26:52;15.80;14.20;8.00
44933;PMS3003;30667;43.614;1.442;2023-10-09T03:29:21;12.60;12.60;7.60
44933;PMS3003;30667;43.614;1.442;2023-10-09T03:31:46;13.60;12.80;7.00
44933;PMS3003;30667;43.614;1.442;2023-10-09T03:34:12;12.00;11.50;7.00
44933;PMS3003;30667;43.614;1.442;2023-10-09T03:36:37;13.50;12.75;7.00
44933;PMS3003;30667;43.614;1.442;2023-10-09T03:39:04;14.25;11.75;6.00
44933;PMS3003;30667;43.614;1.442;2023-10-09T03:41:43;15.20;13.20;6.60
44933;PMS3003;30667;43.614;1.442;2023-10-09T03:44:11;15.40;12.00;7.00
44933;PMS3003;30667;43.614;1.442;2023-10-09T03:46:38;13.40;11.80;6.20
44933;PMS3003;30667;43.614;1.442;2023-10-09T03:49:04;12.00;11.25;7.00
44933;PMS3003;30667;43.614;1.442;2023-10-09T03:51:35;14.00;11.80;6.20
44933;PMS3003;30667;43.614;1.442;2023-10-09T03:54:02;15.80;13.60;6.80
44933;PMS3003;30667;43.614;1.442;2023-10-09T03:56:32;14.80;13.20;6.80
44933;PMS3003;30667;43.614;1.442;2023-10-09T03:58:57;14.00;13.00;7.00
44933;PMS3003;30667;43.614;1.442;2023-10-09T04:01:23;11.75;11.00;7.00
44933;PMS3003;30667;43.614;1.442;2023-10-09T04:03:57;14.80;12.20;6.60
44933;PMS3003;30667;43.614;1.442;2023-10-09T04:06:25;14.60;12.60;6.20
44933;PMS3003;30667;43.614;1.442;2023-10-09T04:08:55;13.80;11.40;7.00
44933;PMS3003;30667;43.614;1.442;2023-10-09T04:11:23;12.00;11.00;6.00
44933;PMS3003;30667;43.614;1.442;2023-10-09T04:13:49;13.60;11.00;7.00
44933;PMS3003;30667;43.614;1.442;2023-10-09T04:16:17;14.00;12.80;7.60
44933;PMS3003;30667;43.614;1.442;2023-10-09T04:18:58;12.00;10.80;5.40
44933;PMS3003;30667;43.614;1.442;2023-10-09T04:21:24;12.80;12.00;6.40
44933;PMS3003;30667;43.614;1.442;2023-10-09T04:24:09;13.80;12.60;7.40
44933;PMS3003;30667;43.614;1.442;2023-10-09T04:26:34;11.00;9.50;5.00
44933;PMS3003;30667;43.614;1.442;2023-10-09T04:29:00;11.00;11.00;7.00
44933;PMS3003;30667;43.614;1.442;2023-10-09T04:31:27;12.60;11.20;5.40
44933;PMS3003;30667;43.614;1.442;2023-10-09T04:33:57;13.60;11.20;7.00
44933;PMS3003;30667;43.614;1.442;2023-10-09T04:36:42;12.00;10.60;6.00
44933;PMS3003;30667;43.614;1.442;2023-10-09T04:39:25;13.00;12.60;6.20
44933;PMS3003;30667;43.614;1.442;2023-10-09T04:41:54;13.60;11.80;6.60
44933;PMS3003;30667;43.614;1.442;2023-10-09T04:44:38;12.00;12.00;7.00
44933;PMS3003;30667;43.614;1.442;2023-10-09T04:47:04;12.50;11.00;5.50
44933;PMS3003;30667;43.614;1.442;2023-10-09T04:49:37;12.20;11.40;6.00
44933;PMS3003;30667;43.614;1.442;2023-10-09T04:52:21;11.60;11.00;6.20
44933;PMS3003;30667;43.614;1.442;2023-10-09T04:54:58;14.60;13.00;6.80
44933;PMS3003;30667;43.614;1.442;2023-10-09T04:57:30;10.60;10.20;6.40
44933;PMS3003;30667;43.614;1.442;2023-10-09T05:00:03;11.20;11.20;6.20
44933;PMS3003;30667;43.614;1.442;2023-10-09T05:02:32;11.20;10.80;5.80
44933;PMS3003;30667;43.614;1.442;2023-10-09T05:05:02;13.00;11.00;6.00
44933;PMS3003;30667;43.614;1.442;2023-10-09T05:08:03;13.40;12.00;5.80
44933;PMS3003;30667;43.614;1.442;2023-10-09T05:10:44;11.20;10.40;6.00
44933;PMS3003;30667;43.614;1.442;2023-10-09T05:13:22;12.60;11.80;6.20
44933;PMS3003;30667;43.614;1.442;2023-10-09T05:18:52;10.00;10.00;5.80
44933;PMS3003;30667;43.614;1.442;2023-10-09T05:21:34;13.40;11.00;5.40
44933;PMS3003;30667;43.614;1.442;2023-10-09T05:24:05;12.60;12.00;6.20
44933;PMS3003;30667;43.614;1.442;2023-10-09T05:26:43;12.20;11.20;6.00
44933;PMS3003;30667;43.614;1.442;2023-10-09T05:31:53;12.00;12.00;7.00
44933;PMS3003;30667;43.614;1.442;2023-10-09T05:34:29;13.80;13.40;7.00
44933;PMS3003;30667;43.614;1.442;2023-10-09T05:37:13;15.60;14.00;8.00
44933;PMS3003;30667;43.614;1.442;2023-10-09T05:39:52;12.80;11.80;6.00
44933;PMS3003;30667;43.614;1.442;2023-10-09T05:42:28;15.60;13.60;7.00
44933;PMS3003;30667;43.614;1.442;2023-10-09T05:50:28;13.60;12.60;7.20
44933;PMS3003;30667;43.614;1.442;2023-10-09T05:52:56;13.00;12.20;7.00
44933;PMS3003;30667;43.614;1.442;2023-10-09T05:55:28;13.40;13.40;7.20
44933;PMS3003;30667;43.614;1.442;2023-10-09T05:58:13;14.20;14.00;8.60
44933;PMS3003;30667;43.614;1.442;2023-10-09T06:00:44;13.40;13.00;8.00
44933;PMS3003;30667;43.614;1.442;2023-10-09T06:03:28;18.80;15.40;10.20
44933;PMS3003;30667;43.614;1.442;2023-10-09T06:06:14;15.60;14.40;8.60
44933;PMS3003;30667;43.614;1.442;2023-10-09T06:09:06;15.20;14.00;8.80
44933;PMS3003;30667;43.614;1.442;2023-10-09T06:11:53;15.80;13.00;8.00
44933;PMS3003;30667;43.614;1.442;2023-10-09T06:14:19;13.50;13.50;7.00
44933;PMS3003;30667;43.614;1.442;2023-10-09T06:16:48;12.20;11.80;7.00
44933;PMS3003;30667;43.614;1.442;2023-10-09T06:19:22;13.00;12.80;6.60
44933;PMS3003;30667;43.614;1.442;2023-10-09T06:21:55;13.00;13.00;7.40
44933;PMS3003;30667;43.614;1.442;2023-10-09T06:24:38;15.00;14.20;9.00
44933;PMS3003;30667;43.614;1.442;2023-10-09T06:27:10;15.00;14.20;8.00
44933;PMS3003;30667;43.614;1.442;2023-10-09T06:29:38;14.60;13.20;7.20
44933;PMS3003;30667;43.614;1.442;2023-10-09T06:32:13;11.60;11.60;5.40
44933;PMS3003;30667;43.614;1.442;2023-10-09T06:34:42;13.00;11.40;6.00
44933;PMS3003;30667;43.614;1.442;2023-10-09T06:37:10;16.00;14.40;8.00
44933;PMS3003;30667;43.614;1.442;2023-10-09T06:39:59;12.20;11.20;6.00
44933;PMS3003;30667;43.614;1.442;2023-10-09T06:42:54;13.00;12.00;6.20
44933;PMS3003;30667;43.614;1.442;2023-10-09T06:45:20;12.25;11.75;6.00
44933;PMS3003;30667;43.614;1.442;2023-10-09T06:47:46;11.80;11.00;6.40
44933;PMS3003;30667;43.614;1.442;2023-10-09T06:50:34;12.40;11.80;6.20
44933;PMS3003;30667;43.614;1.442;2023-10-09T06:53:18;13.60;10.80;6.00
44933;PMS3003;30667;43.614;1.442;2023-10-09T06:55:50;11.00;9.80;5.60
44933;PMS3003;30667;43.614;1.442;2023-10-09T06:58:19;13.60;12.00;6.40
44933;PMS3003;30667;43.614;1.442;2023-10-09T07:00:50;14.80;12.00;6.00
44933;PMS3003;30667;43.614;1.442;2023-10-09T07:03:34;15.00;12.60;7.00
44933;PMS3003;30667;43.614;1.442;2023-10-09T07:06:06;15.25;14.00;7.75
44933;PMS3003;30667;43.614;1.442;2023-10-09T07:08:48;14.00;13.40;7.40
44933;PMS3003;30667;43.614;1.442;2023-10-09T07:11:38;20.00;17.40;11.80
44933;PMS3003;30667;43.614;1.442;2023-10-09T07:14:08;16.40;14.80;8.00
44933;PMS3003;30667;43.614;1.442;2023-10-09T07:16:56;13.60;13.00;6.60
44933;PMS3003;30667;43.614;1.442;2023-10-09T07:19:25;15.80;12.80;6.60
44933;PMS3003;30667;43.614;1.442;2023-10-09T07:22:07;14.40;12.00;7.00
44933;PMS3003;30667;43.614;1.442;2023-10-09T07:27:39;13.00;12.80;7.60
44933;PMS3003;30667;43.614;1.442;2023-10-09T07:30:15;12.40;11.20;6.00
44933;PMS3003;30667;43.614;1.442;2023-10-09T07:32:54;14.40;13.00;7.60
44933;PMS3003;30667;43.614;1.442;2023-10-09T07:35:22;11.50;11.50;6.75
44933;PMS3003;30667;43.614;1.442;2023-10-09T07:38:21;14.00;13.00;7.20
44933;PMS3003;30667;43.614;1.442;2023-10-09T07:40:53;14.80;13.40;7.40
44933;PMS3003;30667;43.614;1.442;2023-10-09T07:43:34;15.00;13.20;8.00
44933;PMS3003;30667;43.614;1.442;2023-10-09T07:46:04;15.00;13.60;7.60
44933;PMS3003;30667;43.614;1.442;2023-10-09T07:48:52;14.80;13.20;8.00
44933;PMS3003;30667;43.614;1.442;2023-10-09T07:51:21;14.80;14.80;8.40
44933;PMS3003;30667;43.614;1.442;2023-10-09T07:53:56;18.00;16.00;9.00
44933;PMS3003;30667;43.614;1.442;2023-10-09T07:56:25;15.60;14.60;8.40
44933;PMS3003;30667;43.614;1.442;2023-10-09T07:59:03;14.80;12.80;7.00
44933;PMS3003;30667;43.614;1.442;2023-10-09T08:01:35;15.00;14.00;7.40
44933;PMS3003;30667;43.614;1.442;2023-10-09T08:04:02;17.80;16.00;8.60
44933;PMS3003;30667;43.614;1.442;2023-10-09T08:06:30;17.20;15.20;9.00
44933;PMS3003;30667;43.614;1.442;2023-10-09T08:09:07;17.60;15.20;8.40
44933;PMS3003;30667;43.614;1.442;2023-10-09T08:11:40;16.20;15.00;8.60
44933;PMS3003;30667;43.614;1.442;2023-10-09T08:14:09;14.00;12.60;8.00
44933;PMS3003;30667;43.614;1.442;2023-10-09T08:17:06;13.40;12.60;7.00
44933;PMS3003;30667;43.614;1.442;2023-10-09T08:19:42;14.00;13.40;8.40
44933;PMS3003;30667;43.614;1.442;2023-10-09T08:22:36;13.40;13.20;7.80
44933;PMS3003;30667;43.614;1.442;2023-10-09T08:25:09;13.80;13.60;7.40
44933;PMS3003;30667;43.614;1.442;2023-10-09T08:27:51;14.00;14.00;7.00
44933;PMS3003;30667;43.614;1.442;2023-10-09T08:30:39;13.80;11.40;6.00
44933;PMS3003;30667;43.614;1.442;2023-10-09T08:33:14;15.00;13.80;7.20
44933;PMS3003;30667;43.614;1.442;2023-10-09T08:35:50;18.00;15.00;8.00
44933;PMS3003;30667;43.614;1.442;2023-10-09T08:38:16;14.80;12.20;6.20
44933;PMS3003;30667;43.614;1.442;2023-10-09T08:40:48;13.60;12.00;6.00
44933;PMS3003;30667;43.614;1.442;2023-10-09T08:43:16;13.00;11.60;7.00
44933;PMS3003;30667;43.614;1.442;2023-10-09T08:45:46;14.00;13.60;6.80
44933;PMS3003;30667;43.614;1.442;2023-10-09T08:48:12;14.80;13.00;7.00
44933;PMS3003;30667;43.614;1.442;2023-10-09T08:50:43;13.20;12.60;8.00
44933;PMS3003;30667;43.614;1.442;2023-10-09T08:53:12;11.40;10.00;6.00
44933;PMS3003;30667;43.614;1.442;2023-10-09T08:55:39;13.20;12.00;6.00
44933;PMS3003;30667;43.614;1.442;2023-10-09T08:58:06;14.60;12.20;7.00
44933;PMS3003;30667;43.614;1.442;2023-10-09T09:00:46;13.40;12.00;6.20
44933;PMS3003;30667;43.614;1.442;2023-10-09T09:03:13;10.80;8.60;5.00
44933;PMS3003;30667;43.614;1.442;2023-10-09T09:05:41;14.60;11.60;7.00
44933;PMS3003;30667;43.614;1.442;2023-10-09T09:08:27;13.20;11.00;5.60
44933;PMS3003;30667;43.614;1.442;2023-10-09T09:11:02;10.20;9.60;5.40
44933;PMS3003;30667;43.614;1.442;2023-10-09T09:13:40;10.20;10.00;6.00
44933;PMS3003;30667;43.614;1.442;2023-10-09T09:16:16;12.60;10.00;6.00
44933;PMS3003;30667;43.614;1.442;2023-10-09T09:18:49;9.60;9.60;6.20
44933;PMS3003;30667;43.614;1.442;2023-10-09T09:21:25;12.00;8.80;4.80
44933;PMS3003;30667;43.614;1.442;2023-10-09T09:23:53;10.80;10.20;6.00
44933;PMS3003;30667;43.614;1.442;2023-10-09T09:26:25;9.00;8.60;4.80
44933;PMS3003;30667;43.614;1.442;2023-10-09T09:29:02;14.60;12.60;7.00
44933;PMS3003;30667;43.614;1.442;2023-10-09T09:31:31;12.20;10.40;6.00
44933;PMS3003;30667;43.614;1.442;2023-10-09T09:34:07;13.40;12.20;6.20
44933;PMS3003;30667;43.614;1.442;2023-10-09T09:36:58;10.00;9.20;6.00
44933;PMS3003;30667;43.614;1.442;2023-10-09T09:39:27;9.60;9.00;5.00
44933;PMS3003;30667;43.614;1.442;2023-10-09T09:41:56;12.80;10.60;6.00
44933;PMS3003;30667;43.614;1.442;2023-10-09T09:44:30;13.80;10.40;6.00
44933;PMS3003;30667;43.614;1.442;2023-10-09T09:47:00;12.00;12.00;6.80
44933;PMS3003;30667;43.614;1.442;2023-10-09T09:49:29;13.00;11.60;6.40
44933;PMS3003;30667;43.614;1.442;2023-10-09T09:52:01;13.00;12.00;6.00
44933;PMS3003;30667;43.614;1.442;2023-10-09T09:54:34;11.80;11.80;7.00
44933;PMS3003;30667;43.614;1.442;2023-10-09T09:57:02;15.80;15.00;8.80
44933;PMS3003;30667;43.614;1.442;2023-10-09T09:59:33;12.40;12.20;7.40
44933;PMS3003;30667;43.614;1.442;2023-10-09T10:02:05;16.00;13.60;8.00
44933;PMS3003;30667;43.614;1.442;2023-10-09T10:04:36;16.80;14.60;7.00
44933;PMS3003;30667;43.614;1.442;2023-10-09T10:07:06;13.80;13.20;7.80
44933;PMS3003;30667;43.614;1.442;2023-10-09T10:09:40;13.00;12.00;6.40
44933;PMS3003;30667;43.614;1.442;2023-10-09T10:12:10;14.40;13.60;6.80
44933;PMS3003;30667;43.614;1.442;2023-10-09T10:17:30;13.40;13.00;7.00
44933;PMS3003;30667;43.614;1.442;2023-10-09T10:22:25;14.00;11.80;6.00
44933;PMS3003;30667;43.614;1.442;2023-10-09T10:24:55;11.80;11.20;7.00
44933;PMS3003;30667;43.614;1.442;2023-10-09T10:27:24;12.00;12.00;7.00
44933;PMS3003;30667;43.614;1.442;2023-10-09T10:35:24;11.00;10.40;6.00
44933;PMS3003;30667;43.614;1.442;2023-10-09T10:41:07;29.60;27.60;17.40
44933;PMS3003;30667;43.614;1.442;2023-10-09T10:43:36;67.80;54.40;35.80
44933;PMS3003;30667;43.614;1.442;2023-10-09T10:46:17;115.20;99.80;63.00
44933;PMS3003;30667;43.614;1.442;2023-10-09T10:48:52;115.00;96.00;60.40
44933;PMS3003;30667;43.614;1.442;2023-10-09T10:51:26;96.00;85.40;56.20
44933;PMS3003;30667;43.614;1.442;2023-10-09T10:54:01;84.80;72.80;46.80
44933;PMS3003;30667;43.614;1.442;2023-10-09T10:56:47;68.00;53.60;35.20
44933;PMS3003;30667;43.614;1.442;2023-10-09T10:59:13;62.60;48.20;29.80
44933;PMS3003;30667;43.614;1.442;2023-10-09T11:01:38;36.67;30.00;19.67
44933;PMS3003;30667;43.614;1.442;2023-10-09T11:04:23;26.40;26.00;17.20
44933;PMS3003;30667;43.614;1.442;2023-10-09T11:07:05;32.00;28.00;17.20
44933;PMS3003;30667;43.614;1.442;2023-10-09T11:09:49;19.60;18.20;11.00
44933;PMS3003;30667;43.614;1.442;2023-10-09T11:12:45;19.80;17.20;9.60
44933;PMS3003;30667;43.614;1.442;2023-10-09T11:15:17;15.80;15.60;8.60
44933;PMS3003;30667;43.614;1.442;2023-10-09T11:18:00;14.20;13.20;7.80
44933;PMS3003;30667;43.614;1.442;2023-10-09T11:20:30;15.00;13.20;6.80
44933;PMS3003;30667;43.614;1.442;2023-10-09T11:22:58;14.00;13.60;8.40
44933;PMS3003;30667;43.614;1.442;2023-10-09T11:25:45;14.80;11.40;6.40
44933;PMS3003;30667;43.614;1.442;2023-10-09T11:28:21;14.00;13.20;7.60
44933;PMS3003;30667;43.614;1.442;2023-10-09T11:31:07;14.20;12.80;7.20
44933;PMS3003;30667;43.614;1.442;2023-10-09T11:33:48;14.00;12.20;6.60
44933;PMS3003;30667;43.614;1.442;2023-10-09T11:36:25;12.40;11.00;6.00
44933;PMS3003;30667;43.614;1.442;2023-10-09T11:39:00;14.00;12.00;7.20
44933;PMS3003;30667;43.614;1.442;2023-10-09T11:41:43;14.60;11.80;6.00
44933;PMS3003;30667;43.614;1.442;2023-10-09T11:44:09;15.00;11.80;6.60
44933;PMS3003;30667;43.614;1.442;2023-10-09T11:46:58;11.00;10.20;5.20
44933;PMS3003;30667;43.614;1.442;2023-10-09T11:49:52;10.00;10.00;6.00
44933;PMS3003;30667;43.614;1.442;2023-10-09T11:52:29;12.40;10.80;6.00
44933;PMS3003;30667;43.614;1.442;2023-10-09T11:55:21;10.80;10.00;5.00
44933;PMS3003;30667;43.614;1.442;2023-10-09T11:57:50;11.00;10.00;5.80
44933;PMS3003;30667;43.614;1.442;2023-10-09T12:00:16;11.40;10.60;6.60
44933;PMS3003;30667;43.614;1.442;2023-10-09T12:02:57;10.60;10.00;5.80
44933;PMS3003;30667;43.614;1.442;2023-10-09T12:05:30;15.60;10.80;6.00
44933;PMS3003;30667;43.614;1.442;2023-10-09T12:07:56;11.00;9.40;5.00
44933;PMS3003;30667;43.614;1.442;2023-10-09T12:10:22;13.20;12.80;7.40
44933;PMS3003;30667;43.614;1.442;2023-10-09T12:12:51;11.20;10.80;6.60
44933;PMS3003;30667;43.614;1.442;2023-10-09T12:15:17;13.60;13.00;7.00
44933;PMS3003;30667;43.614;1.442;2023-10-09T12:17:44;12.00;10.80;7.00
44933;PMS3003;30667;43.614;1.442;2023-10-09T12:20:12;12.00;10.20;6.00
44933;PMS3003;30667;43.614;1.442;2023-10-09T12:22:55;11.40;10.80;6.00
44933;PMS3003;30667;43.614;1.442;2023-10-09T12:25:22;9.60;8.60;5.00
44933;PMS3003;30667;43.614;1.442;2023-10-09T12:27:48;10.60;10.00;6.60
44933;PMS3003;30667;43.614;1.442;2023-10-09T12:30:14;13.25;11.50;6.50
44933;PMS3003;30667;43.614;1.442;2023-10-09T12:32:39;9.50;9.00;5.00
44933;PMS3003;30667;43.614;1.442;2023-10-09T12:35:05;18.20;13.60;8.00
44933;PMS3003;30667;43.614;1.442;2023-10-09T12:37:42;9.00;9.00;5.80
44933;PMS3003;30667;43.614;1.442;2023-10-09T12:40:08;12.60;10.00;5.00
44933;PMS3003;30667;43.614;1.442;2023-10-09T12:42:35;10.00;9.80;5.00
44933;PMS3003;30667;43.614;1.442;2023-10-09T12:45:01;11.20;9.40;5.00
44933;PMS3003;30667;43.614;1.442;2023-10-09T12:47:33;9.40;9.00;6.00
44933;PMS3003;30667;43.614;1.442;2023-10-09T12:50:07;10.80;10.00;6.00
44933;PMS3003;30667;43.614;1.442;2023-10-09T12:52:38;10.20;8.80;4.40
44933;PMS3003;30667;43.614;1.442;2023-10-09T12:55:04;11.20;10.00;5.60
44933;PMS3003;30667;43.614;1.442;2023-10-09T12:57:32;10.00;9.00;4.40
44933;PMS3003;30667;43.614;1.442;2023-10-09T12:59:58;9.00;8.20;5.00
44933;PMS3003;30667;43.614;1.442;2023-10-09T13:02:23;8.75;8.50;5.00
44933;PMS3003;30667;43.614;1.442;2023-10-09T13:04:55;10.00;9.00;5.20
44933;PMS3003;30667;43.614;1.442;2023-10-09T13:07:25;11.00;9.60;5.40
44933;PMS3003;30667;43.614;1.442;2023-10-09T13:09:50;9.50;8.50;4.75
44933;PMS3003;30667;43.614;1.442;2023-10-09T13:12:34;12.40;10.40;5.00
44933;PMS3003;30667;43.614;1.442;2023-10-09T13:15:07;9.80;9.00;5.00
44933;PMS3003;30667;43.614;1.442;2023-10-09T13:17:37;12.20;11.40;5.80
44933;PMS3003;30667;43.614;1.442;2023-10-09T13:20:03;10.40;9.60;5.00
44933;PMS3003;30667;43.614;1.442;2023-10-09T13:22:41;11.80;10.60;6.00
44933;PMS3003;30667;43.614;1.442;2023-10-09T13:25:08;11.60;9.80;5.40
44933;PMS3003;30667;43.614;1.442;2023-10-09T13:27:50;10.00;10.00;6.00
44933;PMS3003;30667;43.614;1.442;2023-10-09T13:30:19;10.00;8.75;6.00
44933;PMS3003;30667;43.614;1.442;2023-10-09T13:32:48;9.20;8.60;5.00
44933;PMS3003;30667;43.614;1.442;2023-10-09T13:35:18;9.20;8.20;5.00
44933;PMS3003;30667;43.614;1.442;2023-10-09T13:37:44;8.80;8.80;5.60
44933;PMS3003;30667;43.614;1.442;2023-10-09T13:40:18;10.60;9.80;5.00
44933;PMS3003;30667;43.614;1.442;2023-10-09T13:42:56;10.20;10.20;6.00
44933;PMS3003;30667;43.614;1.442;2023-10-09T13:45:24;11.00;10.00;6.00
44933;PMS3003;30667;43.614;1.442;2023-10-09T13:47:52;12.00;10.80;6.00
44933;PMS3003;30667;43.614;1.442;2023-10-09T13:50:24;8.20;8.00;6.00
44933;PMS3003;30667;43.614;1.442;2023-10-09T13:52:57;10.40;8.40;4.80
44933;PMS3003;30667;43.614;1.442;2023-10-09T13:55:22;11.00;10.00;5.00
44933;PMS3003;30667;43.614;1.442;2023-10-09T13:57:55;8.80;8.60;4.80
44933;PMS3003;30667;43.614;1.442;2023-10-09T14:00:22;8.40;8.00;4.00
44933;PMS3003;30667;43.614;1.442;2023-10-09T14:03:07;9.60;8.80;4.00
44933;PMS3003;30667;43.614;1.442;2023-10-09T14:05:39;8.20;8.00;5.00
44933;PMS3003;30667;43.614;1.442;2023-10-09T14:08:19;9.40;9.40;5.60
44933;PMS3003;30667;43.614;1.442;2023-10-09T14:10:47;9.00;9.00;5.00
44933;PMS3003;30667;43.614;1.442;2023-10-09T14:13:14;7.80;7.20;4.00
44933;PMS3003;30667;43.614;1.442;2023-10-09T14:15:51;7.00;7.00;4.00
44933;PMS3003;30667;43.614;1.442;2023-10-09T14:18:17;9.60;8.80;4.40
44933;PMS3003;30667;43.614;1.442;2023-10-09T14:20:42;10.75;9.25;5.00
44933;PMS3003;30667;43.614;1.442;2023-10-09T14:23:08;9.00;8.00;5.00
44933;PMS3003;30667;43.614;1.442;2023-10-09T14:25:38;9.20;8.00;4.20
44933;PMS3003;30667;43.614;1.442;2023-10-09T14:28:06;8.00;8.00;4.60
44933;PMS3003;30667;43.614;1.442;2023-10-09T14:30:33;8.00;7.80;4.20
44933;PMS3003;30667;43.614;1.442;2023-10-09T14:33:09;10.00;7.20;4.20
44933;PMS3003;30667;43.614;1.442;2023-10-09T14:35:41;8.20;8.00;4.40
44933;PMS3003;30667;43.614;1.442;2023-10-09T14:38:10;9.00;8.00;4.00
44933;PMS3003;30667;43.614;1.442;2023-10-09T14:40:40;6.40;6.00;3.80
44933;PMS3003;30667;43.614;1.442;2023-10-09T14:43:09;10.00;9.00;5.00
44933;PMS3003;30667;43.614;1.442;2023-10-09T14:45:44;9.20;9.00;5.00
44933;PMS3003;30667;43.614;1.442;2023-10-09T14:48:13;10.60;9.00;5.00
44933;PMS3003;30667;43.614;1.442;2023-10-09T14:50:49;9.20;7.80;5.00
44933;PMS3003;30667;43.614;1.442;2023-10-09T14:53:18;9.00;8.00;4.40
44933;PMS3003;30667;43.614;1.442;2023-10-09T14:55:45;10.40;9.20;5.00
44933;PMS3003;30667;43.614;1.442;2023-10-09T14:58:14;9.60;9.20;5.00
44933;PMS3003;30667;43.614;1.442;2023-10-09T15:00:40;8.20;7.80;4.00
44933;PMS3003;30667;43.614;1.442;2023-10-09T15:03:12;9.20;9.20;4.40